sensor_id;sensor_type;location;lat;lon;timestamp;P1;durP1;ratioP1;P2;durP2;ratioP2
9716;SDS011;4897;43.570;27.832;2023-08-17T00:01:49;8.90;;;4.63;;
9716;SDS011;4897;43.570;27.832;2023-08-17T00:04:16;9.82;;;4.93;;
9716;SDS011;4897;43.570;27.832;2023-08-17T00:06:43;8.95;;;4.78;;
9716;SDS011;4897;43.570;27.832;2023-08-17T00:09:12;6.65;;;4.60;;
9716;SDS011;4897;43.570;27.832;2023-08-17T00:11:39;7.97;;;4.90;;
9716;SDS011;4897;43.570;27.832;2023-08-17T00:14:08;10.60;;;4.97;;
9716;SDS011;4897;43.570;27.832;2023-08-17T00:16:37;6.97;;;4.85;;
9716;SDS011;4897;43.570;27.832;2023-08-17T00:19:04;9.02;;;5.10;;
9716;SDS011;4897;43.570;27.832;2023-08-17T00:21:31;6.68;;;4.32;;
9716;SDS011;4897;43.570;27.832;2023-08-17T00:23:58;5.28;;;4.18;;
9716;SDS011;4897;43.570;27.832;2023-08-17T00:26:25;5.80;;;4.68;;
9716;SDS011;4897;43.570;27.832;2023-08-17T00:28:53;5.97;;;4.90;;
9716;SDS011;4897;43.570;27.832;2023-08-17T00:31:20;6.70;;;4.60;;
9716;SDS011;4897;43.570;27.832;2023-08-17T00:33:48;6.25;;;4.53;;
9716;SDS011;4897;43.570;27.832;2023-08-17T00:36:15;7.57;;;4.65;;
9716;SDS011;4897;43.570;27.832;2023-08-17T00:38:42;8.20;;;4.40;;
9716;SDS011;4897;43.570;27.832;2023-08-17T00:41:09;6.93;;;4.55;;
9716;SDS011;4897;43.570;27.832;2023-08-17T00:43:36;11.93;;;5.00;;
9716;SDS011;4897;43.570;27.832;2023-08-17T00:46:03;7.32;;;4.97;;
9716;SDS011;4897;43.570;27.832;2023-08-17T00:48:31;6.13;;;4.90;;
9716;SDS011;4897;43.570;27.832;2023-08-17T00:51:00;5.32;;;4.80;;
9716;SDS011;4897;43.570;27.832;2023-08-17T00:53:29;9.95;;;4.90;;
9716;SDS011;4897;43.570;27.832;2023-08-17T00:55:57;6.63;;;4.50;;
9716;SDS011;4897;43.570;27.832;2023-08-17T00:58:26;7.53;;;5.30;;
9716;SDS011;4897;43.570;27.832;2023-08-17T01:00:53;6.13;;;4.78;;
9716;SDS011;4897;43.570;27.832;2023-08-17T01:03:21;6.07;;;5.07;;
9716;SDS011;4897;43.570;27.832;2023-08-17T01:05:49;6.32;;;4.93;;
9716;SDS011;4897;43.570;27.832;2023-08-17T01:08:17;8.10;;;4.82;;
9716;SDS011;4897;43.570;27.832;2023-08-17T01:10:47;9.10;;;4.75;;
9716;SDS011;4897;43.570;27.832;2023-08-17T01:13:21;7.35;;;4.60;;
9716;SDS011;4897;43.570;27.832;2023-08-17T01:15:54;6.78;;;4.95;;
9716;SDS011;4897;43.570;27.832;2023-08-17T01:18:28;10.18;;;5.35;;
9716;SDS011;4897;43.570;27.832;2023-08-17T01:20:58;7.65;;;4.72;;
9716;SDS011;4897;43.570;27.832;2023-08-17T01:23:27;8.32;;;5.20;;
9716;SDS011;4897;43.570;27.832;2023-08-17T01:25:55;6.72;;;4.90;;
9716;SDS011;4897;43.570;27.832;2023-08-17T01:28:22;9.63;;;5.00;;
9716;SDS011;4897;43.570;27.832;2023-08-17T01:30:50;9.32;;;5.10;;
9716;SDS011;4897;43.570;27.832;2023-08-17T01:33:24;9.13;;;4.85;;
9716;SDS011;4897;43.570;27.832;2023-08-17T01:36:01;8.30;;;5.07;;
9716;SDS011;4897;43.570;27.832;2023-08-17T01:38:37;7.78;;;5.40;;
9716;SDS011;4897;43.570;27.832;2023-08-17T01:41:06;8.55;;;4.97;;
9716;SDS011;4897;43.570;27.832;2023-08-17T01:43:40;5.55;;;4.72;;
9716;SDS011;4897;43.570;27.832;2023-08-17T01:46:12;9.20;;;5.30;;
9716;SDS011;4897;43.570;27.832;2023-08-17T01:48:40;5.80;;;4.65;;
9716;SDS011;4897;43.570;27.832;2023-08-17T01:51:07;6.72;;;4.95;;
9716;SDS011;4897;43.570;27.832;2023-08-17T01:53:38;7.75;;;4.93;;
9716;SDS011;4897;43.570;27.832;2023-08-17T01:56:05;7.40;;;5.20;;
9716;SDS011;4897;43.570;27.832;2023-08-17T01:58:32;6.95;;;4.82;;
9716;SDS011;4897;43.570;27.832;2023-08-17T02:00:59;7.50;;;5.80;;
9716;SDS011;4897;43.570;27.832;2023-08-17T02:03:26;6.78;;;5.10;;
9716;SDS011;4897;43.570;27.832;2023-08-17T02:05:55;9.18;;;5.13;;
9716;SDS011;4897;43.570;27.832;2023-08-17T02:08:22;6.05;;;5.05;;
9716;SDS011;4897;43.570;27.832;2023-08-17T02:10:50;8.15;;;4.82;;
9716;SDS011;4897;43.570;27.832;2023-08-17T02:13:17;7.88;;;5.07;;
9716;SDS011;4897;43.570;27.832;2023-08-17T02:15:45;10.10;;;5.35;;
9716;SDS011;4897;43.570;27.832;2023-08-17T02:18:12;10.15;;;5.55;;
9716;SDS011;4897;43.570;27.832;2023-08-17T02:20:39;9.45;;;5.32;;
9716;SDS011;4897;43.570;27.832;2023-08-17T02:23:07;6.13;;;5.18;;
9716;SDS011;4897;43.570;27.832;2023-08-17T02:25:34;6.00;;;4.97;;
9716;SDS011;4897;43.570;27.832;2023-08-17T02:28:06;8.98;;;5.10;;
9716;SDS011;4897;43.570;27.832;2023-08-17T02:30:33;11.40;;;5.30;;
9716;SDS011;4897;43.570;27.832;2023-08-17T02:33:00;10.57;;;5.25;;
9716;SDS011;4897;43.570;27.832;2023-08-17T02:35:27;7.68;;;5.40;;
9716;SDS011;4897;43.570;27.832;2023-08-17T02:37:54;8.48;;;5.50;;
9716;SDS011;4897;43.570;27.832;2023-08-17T02:40:21;10.30;;;5.85;;
9716;SDS011;4897;43.570;27.832;2023-08-17T02:42:48;8.77;;;5.55;;
9716;SDS011;4897;43.570;27.832;2023-08-17T02:45:19;9.93;;;5.97;;
9716;SDS011;4897;43.570;27.832;2023-08-17T02:47:46;8.18;;;5.47;;
9716;SDS011;4897;43.570;27.832;2023-08-17T02:50:13;8.02;;;5.50;;
9716;SDS011;4897;43.570;27.832;2023-08-17T02:52:40;8.15;;;5.40;;
9716;SDS011;4897;43.570;27.832;2023-08-17T02:55:07;7.40;;;5.22;;
9716;SDS011;4897;43.570;27.832;2023-08-17T02:57:34;8.43;;;5.35;;
9716;SDS011;4897;43.570;27.832;2023-08-17T03:00:01;9.77;;;5.70;;
9716;SDS011;4897;43.570;27.832;2023-08-17T03:02:30;13.77;;;5.50;;
9716;SDS011;4897;43.570;27.832;2023-08-17T03:04:57;7.35;;;5.53;;
9716;SDS011;4897;43.570;27.832;2023-08-17T03:07:24;7.10;;;5.88;;
9716;SDS011;4897;43.570;27.832;2023-08-17T03:09:53;8.60;;;6.30;;
9716;SDS011;4897;43.570;27.832;2023-08-17T03:12:20;11.73;;;5.65;;
9716;SDS011;4897;43.570;27.832;2023-08-17T03:14:47;12.68;;;5.35;;
9716;SDS011;4897;43.570;27.832;2023-08-17T03:17:14;18.65;;;5.85;;
9716;SDS011;4897;43.570;27.832;2023-08-17T03:19:42;11.38;;;6.35;;
9716;SDS011;4897;43.570;27.832;2023-08-17T03:22:09;10.40;;;5.88;;
9716;SDS011;4897;43.570;27.832;2023-08-17T03:24:36;12.48;;;6.28;;
9716;SDS011;4897;43.570;27.832;2023-08-17T03:27:03;11.13;;;6.07;;
9716;SDS011;4897;43.570;27.832;2023-08-17T03:29:31;7.53;;;5.82;;
9716;SDS011;4897;43.570;27.832;2023-08-17T03:31:58;8.82;;;6.50;;
9716;SDS011;4897;43.570;27.832;2023-08-17T03:34:24;19.60;;;7.90;;
9716;SDS011;4897;43.570;27.832;2023-08-17T03:36:53;16.23;;;8.13;;
9716;SDS011;4897;43.570;27.832;2023-08-17T03:39:20;11.40;;;7.07;;
9716;SDS011;4897;43.570;27.832;2023-08-17T03:41:47;7.38;;;6.22;;
9716;SDS011;4897;43.570;27.832;2023-08-17T03:44:14;11.75;;;6.97;;
9716;SDS011;4897;43.570;27.832;2023-08-17T03:46:41;10.50;;;7.50;;
9716;SDS011;4897;43.570;27.832;2023-08-17T03:49:08;11.60;;;6.80;;
9716;SDS011;4897;43.570;27.832;2023-08-17T03:51:35;8.93;;;6.65;;
9716;SDS011;4897;43.570;27.832;2023-08-17T03:54:03;11.05;;;6.68;;
9716;SDS011;4897;43.570;27.832;2023-08-17T03:56:31;9.45;;;6.30;;
9716;SDS011;4897;43.570;27.832;2023-08-17T03:58:57;11.52;;;6.68;;
9716;SDS011;4897;43.570;27.832;2023-08-17T04:01:24;9.27;;;7.00;;
9716;SDS011;4897;43.570;27.832;2023-08-17T04:03:51;10.85;;;7.18;;
9716;SDS011;4897;43.570;27.832;2023-08-17T04:06:19;10.90;;;7.13;;
9716;SDS011;4897;43.570;27.832;2023-08-17T04:08:45;9.95;;;7.13;;
9716;SDS011;4897;43.570;27.832;2023-08-17T04:11:14;12.18;;;7.07;;
9716;SDS011;4897;43.570;27.832;2023-08-17T04:13:41;12.43;;;6.93;;
9716;SDS011;4897;43.570;27.832;2023-08-17T04:16:07;13.38;;;6.80;;
9716;SDS011;4897;43.570;27.832;2023-08-17T04:18:34;12.52;;;6.70;;
9716;SDS011;4897;43.570;27.832;2023-08-17T04:21:02;9.38;;;6.38;;
9716;SDS011;4897;43.570;27.832;2023-08-17T04:23:28;9.00;;;6.30;;
9716;SDS011;4897;43.570;27.832;2023-08-17T04:25:55;12.43;;;6.35;;
9716;SDS011;4897;43.570;27.832;2023-08-17T04:28:24;10.43;;;6.57;;
9716;SDS011;4897;43.570;27.832;2023-08-17T04:30:51;10.80;;;7.00;;
9716;SDS011;4897;43.570;27.832;2023-08-17T04:33:18;10.07;;;6.22;;
9716;SDS011;4897;43.570;27.832;2023-08-17T04:35:46;15.30;;;7.45;;
9716;SDS011;4897;43.570;27.832;2023-08-17T04:38:14;12.05;;;7.00;;
9716;SDS011;4897;43.570;27.832;2023-08-17T04:40:43;11.55;;;6.45;;
9716;SDS011;4897;43.570;27.832;2023-08-17T04:43:12;9.23;;;6.70;;
9716;SDS011;4897;43.570;27.832;2023-08-17T04:45:41;15.10;;;7.05;;
9716;SDS011;4897;43.570;27.832;2023-08-17T04:48:09;13.30;;;6.57;;
9716;SDS011;4897;43.570;27.832;2023-08-17T04:50:36;9.38;;;6.78;;
9716;SDS011;4897;43.570;27.832;2023-08-17T04:53:03;15.38;;;6.88;;
9716;SDS011;4897;43.570;27.832;2023-08-17T04:55:30;14.52;;;7.07;;
9716;SDS011;4897;43.570;27.832;2023-08-17T04:57:58;12.80;;;6.47;;
9716;SDS011;4897;43.570;27.832;2023-08-17T05:00:25;11.07;;;6.70;;
9716;SDS011;4897;43.570;27.832;2023-08-17T05:02:55;15.18;;;6.85;;
9716;SDS011;4897;43.570;27.832;2023-08-17T05:05:22;8.82;;;6.32;;
9716;SDS011;4897;43.570;27.832;2023-08-17T05:07:49;9.52;;;6.65;;
9716;SDS011;4897;43.570;27.832;2023-08-17T05:10:16;14.82;;;6.20;;
9716;SDS011;4897;43.570;27.832;2023-08-17T05:12:43;11.95;;;6.10;;
9716;SDS011;4897;43.570;27.832;2023-08-17T05:15:11;10.38;;;6.40;;
9716;SDS011;4897;43.570;27.832;2023-08-17T05:17:38;12.32;;;5.90;;
9716;SDS011;4897;43.570;27.832;2023-08-17T05:20:08;11.35;;;6.22;;
9716;SDS011;4897;43.570;27.832;2023-08-17T05:22:35;13.35;;;5.90;;
9716;SDS011;4897;43.570;27.832;2023-08-17T05:25:02;10.70;;;5.97;;
9716;SDS011;4897;43.570;27.832;2023-08-17T05:27:30;9.02;;;5.82;;
9716;SDS011;4897;43.570;27.832;2023-08-17T05:30:00;11.02;;;6.57;;
9716;SDS011;4897;43.570;27.832;2023-08-17T05:32:26;11.55;;;5.68;;
9716;SDS011;4897;43.570;27.832;2023-08-17T05:34:53;9.75;;;5.57;;
9716;SDS011;4897;43.570;27.832;2023-08-17T05:37:22;12.77;;;6.60;;
9716;SDS011;4897;43.570;27.832;2023-08-17T05:39:49;8.40;;;5.65;;
9716;SDS011;4897;43.570;27.832;2023-08-17T05:42:16;6.32;;;4.95;;
9716;SDS011;4897;43.570;27.832;2023-08-17T05:44:43;8.63;;;5.70;;
9716;SDS011;4897;43.570;27.832;2023-08-17T05:47:11;13.55;;;6.35;;
9716;SDS011;4897;43.570;27.832;2023-08-17T05:49:40;11.25;;;5.53;;
9716;SDS011;4897;43.570;27.832;2023-08-17T05:52:07;13.43;;;5.65;;
9716;SDS011;4897;43.570;27.832;2023-08-17T05:54:35;10.77;;;5.30;;
9716;SDS011;4897;43.570;27.832;2023-08-17T05:57:02;7.35;;;4.93;;
9716;SDS011;4897;43.570;27.832;2023-08-17T05:59:32;9.80;;;5.43;;
9716;SDS011;4897;43.570;27.832;2023-08-17T06:02:02;11.02;;;5.80;;
9716;SDS011;4897;43.570;27.832;2023-08-17T06:04:29;12.73;;;6.05;;
9716;SDS011;4897;43.570;27.832;2023-08-17T06:06:56;8.60;;;5.32;;
9716;SDS011;4897;43.570;27.832;2023-08-17T06:09:23;10.73;;;5.47;;
9716;SDS011;4897;43.570;27.832;2023-08-17T06:11:51;8.13;;;4.90;;
9716;SDS011;4897;43.570;27.832;2023-08-17T06:14:18;14.73;;;5.57;;
9716;SDS011;4897;43.570;27.832;2023-08-17T06:16:45;14.85;;;5.30;;
9716;SDS011;4897;43.570;27.832;2023-08-17T06:19:12;9.10;;;4.63;;
9716;SDS011;4897;43.570;27.832;2023-08-17T06:21:39;10.52;;;4.88;;
9716;SDS011;4897;43.570;27.832;2023-08-17T06:24:06;6.53;;;4.53;;
9716;SDS011;4897;43.570;27.832;2023-08-17T06:26:33;9.35;;;4.90;;
9716;SDS011;4897;43.570;27.832;2023-08-17T06:29:01;12.43;;;5.05;;
9716;SDS011;4897;43.570;27.832;2023-08-17T06:31:28;7.43;;;5.15;;
9716;SDS011;4897;43.570;27.832;2023-08-17T06:33:55;8.07;;;5.07;;
9716;SDS011;4897;43.570;27.832;2023-08-17T06:36:23;9.98;;;5.30;;
9716;SDS011;4897;43.570;27.832;2023-08-17T06:38:50;10.00;;;6.75;;
9716;SDS011;4897;43.570;27.832;2023-08-17T06:41:17;9.07;;;4.88;;
9716;SDS011;4897;43.570;27.832;2023-08-17T06:43:44;6.75;;;5.03;;
9716;SDS011;4897;43.570;27.832;2023-08-17T06:46:12;7.47;;;4.82;;
9716;SDS011;4897;43.570;27.832;2023-08-17T06:48:39;8.60;;;5.15;;
9716;SDS011;4897;43.570;27.832;2023-08-17T06:51:07;28.15;;;8.50;;
9716;SDS011;4897;43.570;27.832;2023-08-17T06:53:34;9.95;;;4.88;;
9716;SDS011;4897;43.570;27.832;2023-08-17T06:56:01;8.43;;;4.75;;
9716;SDS011;4897;43.570;27.832;2023-08-17T06:58:28;10.65;;;6.03;;
9716;SDS011;4897;43.570;27.832;2023-08-17T07:00:55;13.63;;;4.75;;
9716;SDS011;4897;43.570;27.832;2023-08-17T07:03:23;5.07;;;4.15;;
9716;SDS011;4897;43.570;27.832;2023-08-17T07:05:50;9.40;;;4.40;;
9716;SDS011;4897;43.570;27.832;2023-08-17T07:08:17;8.85;;;4.53;;
9716;SDS011;4897;43.570;27.832;2023-08-17T07:10:44;9.70;;;5.15;;
9716;SDS011;4897;43.570;27.832;2023-08-17T07:13:11;10.73;;;4.68;;
9716;SDS011;4897;43.570;27.832;2023-08-17T07:15:38;10.30;;;4.45;;
9716;SDS011;4897;43.570;27.832;2023-08-17T07:18:05;9.43;;;4.60;;
9716;SDS011;4897;43.570;27.832;2023-08-17T07:20:34;11.93;;;5.10;;
9716;SDS011;4897;43.570;27.832;2023-08-17T07:23:01;7.05;;;4.45;;
9716;SDS011;4897;43.570;27.832;2023-08-17T07:25:33;7.97;;;4.55;;
9716;SDS011;4897;43.570;27.832;2023-08-17T07:28:00;5.63;;;4.30;;
9716;SDS011;4897;43.570;27.832;2023-08-17T07:30:28;11.48;;;4.70;;
9716;SDS011;4897;43.570;27.832;2023-08-17T07:32:55;11.05;;;6.22;;
9716;SDS011;4897;43.570;27.832;2023-08-17T07:35:22;17.77;;;14.35;;
9716;SDS011;4897;43.570;27.832;2023-08-17T07:37:50;7.55;;;4.45;;
9716;SDS011;4897;43.570;27.832;2023-08-17T07:40:19;9.38;;;4.18;;
9716;SDS011;4897;43.570;27.832;2023-08-17T07:42:47;9.32;;;5.47;;
9716;SDS011;4897;43.570;27.832;2023-08-17T07:45:14;8.18;;;5.88;;
9716;SDS011;4897;43.570;27.832;2023-08-17T07:47:42;11.23;;;4.45;;
9716;SDS011;4897;43.570;27.832;2023-08-17T07:50:09;5.50;;;4.70;;
9716;SDS011;4897;43.570;27.832;2023-08-17T07:52:36;7.97;;;4.93;;
9716;SDS011;4897;43.570;27.832;2023-08-17T07:55:04;7.68;;;4.00;;
9716;SDS011;4897;43.570;27.832;2023-08-17T07:57:32;11.63;;;6.78;;
9716;SDS011;4897;43.570;27.832;2023-08-17T07:59:59;9.35;;;5.40;;
9716;SDS011;4897;43.570;27.832;2023-08-17T08:02:26;8.18;;;4.82;;
9716;SDS011;4897;43.570;27.832;2023-08-17T08:04:53;9.48;;;4.70;;
9716;SDS011;4897;43.570;27.832;2023-08-17T08:07:20;14.45;;;6.10;;
9716;SDS011;4897;43.570;27.832;2023-08-17T08:09:47;5.22;;;4.63;;
9716;SDS011;4897;43.570;27.832;2023-08-17T08:12:15;11.45;;;5.65;;
9716;SDS011;4897;43.570;27.832;2023-08-17T08:14:42;6.05;;;4.63;;
9716;SDS011;4897;43.570;27.832;2023-08-17T08:17:09;15.40;;;8.45;;
9716;SDS011;4897;43.570;27.832;2023-08-17T08:19:36;9.82;;;4.70;;
9716;SDS011;4897;43.570;27.832;2023-08-17T08:22:03;5.82;;;4.95;;
9716;SDS011;4897;43.570;27.832;2023-08-17T08:24:30;7.05;;;4.75;;
9716;SDS011;4897;43.570;27.832;2023-08-17T08:26:59;10.10;;;4.82;;
9716;SDS011;4897;43.570;27.832;2023-08-17T08:29:28;7.75;;;5.30;;
9716;SDS011;4897;43.570;27.832;2023-08-17T08:31:55;8.18;;;4.68;;
9716;SDS011;4897;43.570;27.832;2023-08-17T08:34:24;7.07;;;4.28;;
9716;SDS011;4897;43.570;27.832;2023-08-17T08:36:51;7.63;;;4.75;;
9716;SDS011;4897;43.570;27.832;2023-08-17T08:39:18;6.18;;;4.80;;
9716;SDS011;4897;43.570;27.832;2023-08-17T08:41:47;6.03;;;4.50;;
9716;SDS011;4897;43.570;27.832;2023-08-17T08:44:14;7.82;;;4.55;;
9716;SDS011;4897;43.570;27.832;2023-08-17T08:46:42;6.07;;;4.75;;
9716;SDS011;4897;43.570;27.832;2023-08-17T08:49:16;7.28;;;4.47;;
9716;SDS011;4897;43.570;27.832;2023-08-17T08:51:46;10.57;;;4.00;;
9716;SDS011;4897;43.570;27.832;2023-08-17T08:54:18;4.97;;;4.47;;
9716;SDS011;4897;43.570;27.832;2023-08-17T08:56:48;13.85;;;4.90;;
9716;SDS011;4897;43.570;27.832;2023-08-17T08:59:18;7.95;;;4.53;;
9716;SDS011;4897;43.570;27.832;2023-08-17T09:01:48;7.13;;;5.53;;
9716;SDS011;4897;43.570;27.832;2023-08-17T09:04:16;6.57;;;4.55;;
9716;SDS011;4897;43.570;27.832;2023-08-17T09:06:44;6.53;;;4.32;;
9716;SDS011;4897;43.570;27.832;2023-08-17T09:09:11;5.85;;;4.13;;
9716;SDS011;4897;43.570;27.832;2023-08-17T09:11:42;7.00;;;3.60;;
9716;SDS011;4897;43.570;27.832;2023-08-17T09:14:09;7.97;;;3.92;;
9716;SDS011;4897;43.570;27.832;2023-08-17T09:16:36;4.35;;;3.95;;
9716;SDS011;4897;43.570;27.832;2023-08-17T09:19:05;7.15;;;4.05;;
9716;SDS011;4897;43.570;27.832;2023-08-17T09:21:32;9.95;;;4.38;;
9716;SDS011;4897;43.570;27.832;2023-08-17T09:23:59;6.03;;;3.78;;
9716;SDS011;4897;43.570;27.832;2023-08-17T09:26:30;5.97;;;3.70;;
9716;SDS011;4897;43.570;27.832;2023-08-17T09:28:57;4.93;;;3.30;;
9716;SDS011;4897;43.570;27.832;2023-08-17T09:31:27;8.65;;;3.90;;
9716;SDS011;4897;43.570;27.832;2023-08-17T09:33:57;5.18;;;3.40;;
9716;SDS011;4897;43.570;27.832;2023-08-17T09:36:26;8.35;;;3.97;;
9716;SDS011;4897;43.570;27.832;2023-08-17T09:38:52;5.50;;;3.75;;
9716;SDS011;4897;43.570;27.832;2023-08-17T09:41:21;4.82;;;3.50;;
9716;SDS011;4897;43.570;27.832;2023-08-17T09:43:48;5.82;;;3.35;;
9716;SDS011;4897;43.570;27.832;2023-08-17T09:46:15;6.95;;;3.50;;
9716;SDS011;4897;43.570;27.832;2023-08-17T09:48:43;5.88;;;4.03;;
9716;SDS011;4897;43.570;27.832;2023-08-17T09:51:10;5.82;;;4.10;;
9716;SDS011;4897;43.570;27.832;2023-08-17T09:53:42;6.55;;;3.88;;
9716;SDS011;4897;43.570;27.832;2023-08-17T09:56:09;10.90;;;3.75;;
9716;SDS011;4897;43.570;27.832;2023-08-17T09:58:38;12.43;;;3.72;;
9716;SDS011;4897;43.570;27.832;2023-08-17T10:01:06;6.55;;;3.38;;
9716;SDS011;4897;43.570;27.832;2023-08-17T10:03:35;9.13;;;3.40;;
9716;SDS011;4897;43.570;27.832;2023-08-17T10:06:05;5.68;;;3.72;;
9716;SDS011;4897;43.570;27.832;2023-08-17T10:08:36;5.55;;;3.83;;
9716;SDS011;4897;43.570;27.832;2023-08-17T10:11:10;4.95;;;3.50;;
9716;SDS011;4897;43.570;27.832;2023-08-17T10:13:39;6.65;;;3.45;;
9716;SDS011;4897;43.570;27.832;2023-08-17T10:16:15;6.60;;;3.53;;
9716;SDS011;4897;43.570;27.832;2023-08-17T10:18:50;9.82;;;3.50;;
9716;SDS011;4897;43.570;27.832;2023-08-17T10:21:22;8.10;;;3.50;;
9716;SDS011;4897;43.570;27.832;2023-08-17T10:23:54;5.07;;;3.40;;
9716;SDS011;4897;43.570;27.832;2023-08-17T10:26:23;6.15;;;3.28;;
9716;SDS011;4897;43.570;27.832;2023-08-17T10:28:51;5.10;;;3.88;;
9716;SDS011;4897;43.570;27.832;2023-08-17T10:31:19;4.18;;;2.90;;
9716;SDS011;4897;43.570;27.832;2023-08-17T10:33:47;6.43;;;3.40;;
9716;SDS011;4897;43.570;27.832;2023-08-17T10:36:14;4.03;;;3.10;;
9716;SDS011;4897;43.570;27.832;2023-08-17T10:38:42;4.55;;;2.80;;
9716;SDS011;4897;43.570;27.832;2023-08-17T10:41:10;6.20;;;3.00;;
9716;SDS011;4897;43.570;27.832;2023-08-17T10:43:55;3.38;;;2.75;;
9716;SDS011;4897;43.570;27.832;2023-08-17T10:46:31;6.00;;;4.05;;
9716;SDS011;4897;43.570;27.832;2023-08-17T10:49:00;3.83;;;2.63;;
9716;SDS011;4897;43.570;27.832;2023-08-17T10:51:30;4.45;;;2.90;;
9716;SDS011;4897;43.570;27.832;2023-08-17T10:53:58;8.00;;;3.95;;
9716;SDS011;4897;43.570;27.832;2023-08-17T10:56:27;4.03;;;2.72;;
9716;SDS011;4897;43.570;27.832;2023-08-17T10:58:56;6.75;;;3.20;;
9716;SDS011;4897;43.570;27.832;2023-08-17T11:01:32;4.97;;;3.10;;
9716;SDS011;4897;43.570;27.832;2023-08-17T11:04:10;6.78;;;3.35;;
9716;SDS011;4897;43.570;27.832;2023-08-17T11:06:38;4.85;;;3.00;;
9716;SDS011;4897;43.570;27.832;2023-08-17T11:09:08;4.50;;;2.58;;
9716;SDS011;4897;43.570;27.832;2023-08-17T11:11:38;3.65;;;2.78;;
9716;SDS011;4897;43.570;27.832;2023-08-17T11:14:07;4.28;;;2.35;;
9716;SDS011;4897;43.570;27.832;2023-08-17T11:16:36;5.18;;;2.60;;
9716;SDS011;4897;43.570;27.832;2023-08-17T11:19:03;4.10;;;2.53;;
9716;SDS011;4897;43.570;27.832;2023-08-17T11:21:30;7.82;;;2.50;;
9716;SDS011;4897;43.570;27.832;2023-08-17T11:23:57;7.15;;;2.58;;
9716;SDS011;4897;43.570;27.832;2023-08-17T11:26:25;3.40;;;2.60;;
9716;SDS011;4897;43.570;27.832;2023-08-17T11:28:56;5.82;;;2.60;;
9716;SDS011;4897;43.570;27.832;2023-08-17T11:31:24;5.30;;;2.72;;
9716;SDS011;4897;43.570;27.832;2023-08-17T11:33:52;5.07;;;2.53;;
9716;SDS011;4897;43.570;27.832;2023-08-17T11:36:19;3.78;;;2.90;;
9716;SDS011;4897;43.570;27.832;2023-08-17T11:38:47;6.13;;;2.50;;
9716;SDS011;4897;43.570;27.832;2023-08-17T11:41:18;6.85;;;2.88;;
9716;SDS011;4897;43.570;27.832;2023-08-17T11:43:46;6.55;;;3.20;;
9716;SDS011;4897;43.570;27.832;2023-08-17T11:46:13;3.33;;;2.67;;
9716;SDS011;4897;43.570;27.832;2023-08-17T11:48:44;6.20;;;4.30;;
9716;SDS011;4897;43.570;27.832;2023-08-17T11:51:11;8.35;;;3.53;;
9716;SDS011;4897;43.570;27.832;2023-08-17T11:53:38;6.75;;;2.88;;
9716;SDS011;4897;43.570;27.832;2023-08-17T11:56:06;3.25;;;2.80;;
9716;SDS011;4897;43.570;27.832;2023-08-17T11:58:36;3.45;;;2.88;;
9716;SDS011;4897;43.570;27.832;2023-08-17T12:01:09;7.30;;;2.55;;
9716;SDS011;4897;43.570;27.832;2023-08-17T12:03:37;4.15;;;2.60;;
9716;SDS011;4897;43.570;27.832;2023-08-17T12:06:07;3.28;;;2.53;;
9716;SDS011;4897;43.570;27.832;2023-08-17T12:08:34;6.28;;;2.90;;
9716;SDS011;4897;43.570;27.832;2023-08-17T12:11:02;3.95;;;2.33;;
9716;SDS011;4897;43.570;27.832;2023-08-17T12:13:30;4.88;;;2.42;;
9716;SDS011;4897;43.570;27.832;2023-08-17T12:15:58;4.05;;;2.50;;
9716;SDS011;4897;43.570;27.832;2023-08-17T12:18:25;4.60;;;2.60;;
9716;SDS011;4897;43.570;27.832;2023-08-17T12:20:52;6.15;;;2.60;;
9716;SDS011;4897;43.570;27.832;2023-08-17T12:23:23;7.47;;;2.88;;
9716;SDS011;4897;43.570;27.832;2023-08-17T12:25:53;6.78;;;2.75;;
9716;SDS011;4897;43.570;27.832;2023-08-17T12:28:21;5.05;;;2.67;;
9716;SDS011;4897;43.570;27.832;2023-08-17T12:30:56;4.85;;;2.70;;
9716;SDS011;4897;43.570;27.832;2023-08-17T12:33:24;5.22;;;2.63;;
9716;SDS011;4897;43.570;27.832;2023-08-17T12:35:51;6.25;;;2.90;;
9716;SDS011;4897;43.570;27.832;2023-08-17T12:38:18;9.38;;;2.90;;
9716;SDS011;4897;43.570;27.832;2023-08-17T12:40:47;3.95;;;2.70;;
9716;SDS011;4897;43.570;27.832;2023-08-17T12:43:14;6.40;;;3.38;;
9716;SDS011;4897;43.570;27.832;2023-08-17T12:45:41;13.80;;;12.48;;
9716;SDS011;4897;43.570;27.832;2023-08-17T12:48:08;7.22;;;3.10;;
9716;SDS011;4897;43.570;27.832;2023-08-17T12:50:35;2.95;;;2.45;;
9716;SDS011;4897;43.570;27.832;2023-08-17T12:53:02;2.78;;;2.25;;
9716;SDS011;4897;43.570;27.832;2023-08-17T12:55:30;5.30;;;2.90;;
9716;SDS011;4897;43.570;27.832;2023-08-17T12:57:58;6.25;;;2.60;;
9716;SDS011;4897;43.570;27.832;2023-08-17T13:00:25;3.65;;;2.63;;
9716;SDS011;4897;43.570;27.832;2023-08-17T13:02:52;4.00;;;2.60;;
9716;SDS011;4897;43.570;27.832;2023-08-17T13:05:20;6.72;;;2.92;;
9716;SDS011;4897;43.570;27.832;2023-08-17T13:07:47;6.88;;;2.70;;
9716;SDS011;4897;43.570;27.832;2023-08-17T13:10:14;6.70;;;3.22;;
9716;SDS011;4897;43.570;27.832;2023-08-17T13:12:41;4.07;;;2.60;;
9716;SDS011;4897;43.570;27.832;2023-08-17T13:15:10;4.07;;;2.80;;
9716;SDS011;4897;43.570;27.832;2023-08-17T13:17:37;5.43;;;3.55;;
9716;SDS011;4897;43.570;27.832;2023-08-17T13:20:04;5.80;;;2.90;;
9716;SDS011;4897;43.570;27.832;2023-08-17T13:22:33;7.13;;;3.00;;
9716;SDS011;4897;43.570;27.832;2023-08-17T13:25:00;4.07;;;3.00;;
9716;SDS011;4897;43.570;27.832;2023-08-17T13:27:28;7.20;;;3.00;;
9716;SDS011;4897;43.570;27.832;2023-08-17T13:29:55;8.32;;;3.22;;
9716;SDS011;4897;43.570;27.832;2023-08-17T13:32:25;4.97;;;2.90;;
9716;SDS011;4897;43.570;27.832;2023-08-17T13:34:52;7.50;;;5.40;;
9716;SDS011;4897;43.570;27.832;2023-08-17T13:37:19;7.90;;;7.10;;
9716;SDS011;4897;43.570;27.832;2023-08-17T13:39:49;4.05;;;2.88;;
9716;SDS011;4897;43.570;27.832;2023-08-17T13:42:16;7.07;;;3.35;;
9716;SDS011;4897;43.570;27.832;2023-08-17T13:44:43;3.88;;;3.13;;
9716;SDS011;4897;43.570;27.832;2023-08-17T13:47:11;6.72;;;3.13;;
9716;SDS011;4897;43.570;27.832;2023-08-17T13:49:40;3.95;;;2.97;;
9716;SDS011;4897;43.570;27.832;2023-08-17T13:52:07;5.43;;;3.08;;
9716;SDS011;4897;43.570;27.832;2023-08-17T13:54:34;5.80;;;2.75;;
9716;SDS011;4897;43.570;27.832;2023-08-17T13:57:01;5.95;;;3.55;;
9716;SDS011;4897;43.570;27.832;2023-08-17T13:59:28;4.10;;;2.90;;
9716;SDS011;4897;43.570;27.832;2023-08-17T14:01:56;5.50;;;2.67;;
9716;SDS011;4897;43.570;27.832;2023-08-17T14:04:23;4.38;;;3.00;;
9716;SDS011;4897;43.570;27.832;2023-08-17T14:06:52;7.43;;;3.72;;
9716;SDS011;4897;43.570;27.832;2023-08-17T14:09:19;4.88;;;2.97;;
9716;SDS011;4897;43.570;27.832;2023-08-17T14:11:46;5.70;;;2.97;;
9716;SDS011;4897;43.570;27.832;2023-08-17T14:14:13;5.07;;;2.88;;
9716;SDS011;4897;43.570;27.832;2023-08-17T14:16:40;3.28;;;2.88;;
9716;SDS011;4897;43.570;27.832;2023-08-17T14:19:08;4.50;;;2.60;;
9716;SDS011;4897;43.570;27.832;2023-08-17T14:21:35;4.00;;;2.88;;
9716;SDS011;4897;43.570;27.832;2023-08-17T14:24:04;5.85;;;3.17;;
9716;SDS011;4897;43.570;27.832;2023-08-17T14:26:33;6.10;;;3.30;;
9716;SDS011;4897;43.570;27.832;2023-08-17T14:29:00;3.83;;;2.90;;
9716;SDS011;4897;43.570;27.832;2023-08-17T14:31:27;5.07;;;2.90;;
9716;SDS011;4897;43.570;27.832;2023-08-17T14:33:54;4.00;;;3.08;;
9716;SDS011;4897;43.570;27.832;2023-08-17T14:36:21;5.20;;;2.95;;
9716;SDS011;4897;43.570;27.832;2023-08-17T14:38:48;6.50;;;3.22;;
9716;SDS011;4897;43.570;27.832;2023-08-17T14:41:17;4.28;;;3.20;;
9716;SDS011;4897;43.570;27.832;2023-08-17T14:43:44;14.27;;;3.67;;
9716;SDS011;4897;43.570;27.832;2023-08-17T14:46:11;4.00;;;3.30;;
9716;SDS011;4897;43.570;27.832;2023-08-17T14:48:38;4.72;;;3.35;;
9716;SDS011;4897;43.570;27.832;2023-08-17T14:51:05;5.13;;;3.42;;
9716;SDS011;4897;43.570;27.832;2023-08-17T14:53:32;3.83;;;2.97;;
9716;SDS011;4897;43.570;27.832;2023-08-17T14:55:59;3.90;;;2.85;;
9716;SDS011;4897;43.570;27.832;2023-08-17T14:58:28;5.97;;;3.22;;
9716;SDS011;4897;43.570;27.832;2023-08-17T15:00:54;4.35;;;3.13;;
9716;SDS011;4897;43.570;27.832;2023-08-17T15:03:22;7.45;;;3.80;;